createdAt,value
2023-05-18T00:00:01.399Z,9.4
2023-05-18T00:01:01.450Z,9.4
2023-05-18T00:02:02.090Z,9.4
2023-05-18T00:03:01.910Z,9.4
2023-05-18T00:04:02.162Z,9.3
2023-05-18T00:05:02.477Z,9.3
2023-05-18T00:06:02.187Z,9.3
2023-05-18T00:07:02.276Z,9.4
2023-05-18T00:08:02.161Z,9.3
2023-05-18T00:09:02.250Z,9.3
2023-05-18T00:10:02.179Z,9.3
2023-05-18T00:11:02.177Z,9.3
2023-05-18T00:12:02.071Z,9.4
2023-05-18T00:13:02.190Z,9.4
2023-05-18T00:14:02.046Z,9.4
2023-05-18T00:15:02.152Z,9.4
2023-05-18T00:16:02.069Z,9.3
2023-05-18T00:17:02.139Z,9.3
2023-05-18T00:18:02.205Z,9.3
2023-05-18T00:19:02.100Z,9.2
2023-05-18T00:20:02.051Z,9.3
2023-05-18T00:21:02.354Z,9.3
2023-05-18T00:22:02.339Z,9.2
2023-05-18T00:23:02.082Z,9.3
2023-05-18T00:24:02.186Z,9.3
2023-05-18T00:25:02.138Z,9.3
2023-05-18T00:26:02.217Z,9.3
2023-05-18T00:27:02.082Z,9.3
2023-05-18T00:28:02.144Z,9.3
2023-05-18T00:29:02.017Z,9.3
2023-05-18T00:30:01.969Z,9.2
2023-05-18T00:31:02.081Z,9.2
2023-05-18T00:32:02.106Z,9.3
2023-05-18T00:33:02.231Z,9.3
2023-05-18T00:34:02.274Z,9.2
2023-05-18T00:35:02.167Z,9.3
2023-05-18T00:36:02.223Z,9.2
2023-05-18T00:37:02.131Z,9.2
2023-05-18T00:38:02.256Z,9.2
2023-05-18T00:39:02.181Z,9.3
2023-05-18T00:40:02.249Z,9.3
2023-05-18T00:41:02.093Z,9.3
2023-05-18T00:42:02.229Z,9.2
2023-05-18T00:43:02.168Z,9.2
2023-05-18T00:44:02.287Z,9.2
2023-05-18T00:45:02.175Z,9.2
2023-05-18T00:46:02.314Z,9.2
2023-05-18T00:47:02.294Z,9.2
2023-05-18T00:48:02.319Z,9.2
2023-05-18T00:49:02.303Z,9.1
2023-05-18T00:50:02.338Z,9.2
2023-05-18T00:51:02.226Z,9.2
2023-05-18T00:52:02.294Z,9.2
2023-05-18T00:53:02.278Z,9.2
2023-05-18T00:54:02.395Z,9.1
2023-05-18T00:55:02.358Z,9.1
2023-05-18T00:56:02.316Z,9.1
2023-05-18T00:57:02.270Z,9.2
2023-05-18T00:58:02.294Z,9.1
2023-05-18T00:59:02.274Z,9.1
2023-05-18T01:00:03.249Z,9.1
2023-05-18T01:01:02.137Z,9.1
2023-05-18T01:02:02.253Z,9.2
2023-05-18T01:03:02.460Z,9.1
2023-05-18T01:04:01.459Z,9.2
2023-05-18T01:05:01.493Z,9.2
2023-05-18T01:06:01.339Z,9.1
2023-05-18T01:07:02.374Z,9.2
2023-05-18T01:08:02.275Z,9.2
2023-05-18T01:09:02.386Z,9.1
2023-05-18T01:10:02.271Z,9.2
2023-05-18T01:11:02.313Z,9.1
2023-05-18T01:12:02.213Z,9.2
2023-05-18T01:13:02.352Z,9.1
2023-05-18T01:14:02.237Z,9.1
2023-05-18T01:15:02.308Z,9.1
2023-05-18T01:16:02.156Z,9
2023-05-18T01:17:02.169Z,9.1
2023-05-18T01:18:02.283Z,9.1
2023-05-18T01:19:02.216Z,9.1
2023-05-18T01:20:02.250Z,9.1
2023-05-18T01:21:02.110Z,9.1
2023-05-18T01:22:02.205Z,9.1
2023-05-18T01:23:02.049Z,9.1
2023-05-18T01:24:02.152Z,9
2023-05-18T01:25:02.026Z,9.1
2023-05-18T01:26:02.121Z,9
2023-05-18T01:27:01.984Z,9.1
2023-05-18T01:28:02.047Z,9
2023-05-18T01:29:01.948Z,9.1
2023-05-18T01:30:01.923Z,9.1
2023-05-18T01:31:02.042Z,9.2
2023-05-18T01:32:01.519Z,9
2023-05-18T01:33:01.583Z,9.1
2023-05-18T01:34:01.506Z,9.2
2023-05-18T01:35:01.410Z,9.1
2023-05-18T01:36:01.318Z,9.1
2023-05-18T01:37:02.389Z,9.1
2023-05-18T01:38:02.224Z,9.1
2023-05-18T01:39:02.301Z,9.1
2023-05-18T01:40:02.252Z,9
2023-05-18T01:41:02.352Z,9.1
2023-05-18T01:42:02.226Z,9.1
2023-05-18T01:43:02.291Z,9
2023-05-18T01:44:02.155Z,9.1
2023-05-18T01:45:02.200Z,9
2023-05-18T01:46:02.147Z,9
2023-05-18T01:47:01.789Z,9.1
2023-05-18T01:48:01.899Z,9.1
2023-05-18T01:49:01.324Z,9.1
2023-05-18T01:50:02.401Z,9.1
2023-05-18T01:51:02.279Z,9.1
2023-05-18T01:52:02.223Z,9.1
2023-05-18T01:53:02.154Z,9.1
2023-05-18T01:54:02.238Z,9.1
2023-05-18T01:55:02.104Z,9.1
2023-05-18T01:56:02.174Z,9.1
2023-05-18T01:57:02.137Z,9.1
2023-05-18T01:58:02.123Z,9.1
2023-05-18T01:59:02.069Z,9.1
2023-05-18T02:00:02.702Z,9.1
2023-05-18T02:01:01.549Z,9
2023-05-18T02:02:01.844Z,9
2023-05-18T02:03:01.969Z,9
2023-05-18T02:04:01.900Z,9
2023-05-18T02:05:02.110Z,9
2023-05-18T02:06:02.197Z,9.1
2023-05-18T02:07:02.097Z,9
2023-05-18T02:08:02.214Z,9
2023-05-18T02:09:02.121Z,9
2023-05-18T02:10:02.157Z,9
2023-05-18T02:11:02.065Z,9
2023-05-18T02:12:02.133Z,9
2023-05-18T02:13:02.033Z,9
2023-05-18T02:14:01.990Z,9
2023-05-18T02:15:02.049Z,8.9
2023-05-18T02:16:01.997Z,9
2023-05-18T02:17:01.833Z,8.9
2023-05-18T02:18:01.931Z,9
2023-05-18T02:19:01.751Z,8.9
2023-05-18T02:20:01.703Z,8.9
2023-05-18T02:21:01.768Z,9
2023-05-18T02:22:01.623Z,8.9
2023-05-18T02:23:01.719Z,8.9
2023-05-18T02:24:01.566Z,8.9
2023-05-18T02:25:01.619Z,9
2023-05-18T02:26:01.472Z,8.9
2023-05-18T02:27:01.541Z,8.9
2023-05-18T02:28:01.337Z,8.9
2023-05-18T02:29:01.375Z,8.9
2023-05-18T02:30:02.282Z,9
2023-05-18T02:31:02.166Z,8.9
2023-05-18T02:32:02.193Z,8.9
2023-05-18T02:33:02.282Z,8.9
2023-05-18T02:34:02.130Z,8.9
2023-05-18T02:35:02.093Z,8.9
2023-05-18T02:36:02.029Z,8.9
2023-05-18T02:37:01.934Z,8.8
2023-05-18T02:38:01.973Z,8.9
2023-05-18T02:39:01.831Z,8.9
2023-05-18T02:40:01.792Z,9
2023-05-18T02:41:01.846Z,8.9
2023-05-18T02:42:01.703Z,8.9
2023-05-18T02:43:01.753Z,8.9
2023-05-18T02:44:01.590Z,8.9
2023-05-18T02:45:01.607Z,8.9
2023-05-18T02:46:01.504Z,8.9
2023-05-18T02:47:01.515Z,8.9
2023-05-18T02:48:01.541Z,8.9
2023-05-18T02:49:01.541Z,8.9
2023-05-18T02:50:01.524Z,8.9
2023-05-18T02:51:01.392Z,8.9
2023-05-18T02:52:01.431Z,8.9
2023-05-18T02:53:01.281Z,8.9
2023-05-18T02:54:02.362Z,8.9
2023-05-18T02:55:02.230Z,8.9
2023-05-18T02:56:02.261Z,8.9
2023-05-18T02:57:02.157Z,8.9
2023-05-18T02:58:02.159Z,8.9
2023-05-18T02:59:02.010Z,8.9
2023-05-18T03:00:02.011Z,8.9
2023-05-18T03:01:01.951Z,8.9
2023-05-18T03:02:01.837Z,8.9
2023-05-18T03:03:01.981Z,8.9
2023-05-18T03:04:01.915Z,9
2023-05-18T03:05:01.867Z,8.9
2023-05-18T03:06:01.910Z,8.9
2023-05-18T03:07:01.789Z,8.9
2023-05-18T03:08:01.799Z,9
2023-05-18T03:09:01.835Z,9
2023-05-18T03:10:01.699Z,8.9
2023-05-18T03:11:01.688Z,8.9
2023-05-18T03:12:01.792Z,8.9
2023-05-18T03:13:01.691Z,8.9
2023-05-18T03:14:01.756Z,8.9
2023-05-18T03:15:01.577Z,8.9
2023-05-18T03:16:01.656Z,9
2023-05-18T03:17:02.367Z,9
2023-05-18T03:18:02.309Z,9
2023-05-18T03:19:02.383Z,9
2023-05-18T03:20:01.282Z,9
2023-05-18T03:21:02.393Z,8.9
2023-05-18T03:22:02.245Z,9
2023-05-18T03:23:02.271Z,9
2023-05-18T03:24:02.131Z,9
2023-05-18T03:25:02.158Z,9
2023-05-18T03:26:02.063Z,9
2023-05-18T03:27:02.122Z,8.9
2023-05-18T03:28:01.962Z,8.9
2023-05-18T03:29:01.950Z,8.9
2023-05-18T03:30:01.988Z,8.9
2023-05-18T03:31:01.820Z,9
2023-05-18T03:32:01.789Z,9
2023-05-18T03:33:01.874Z,8.9
2023-05-18T03:34:01.768Z,9
2023-05-18T03:35:01.357Z,9
2023-05-18T03:36:01.442Z,9
2023-05-18T03:37:01.330Z,8.9
2023-05-18T03:38:02.289Z,8.9
2023-05-18T03:39:02.236Z,8.9
2023-05-18T03:40:02.285Z,8.9
2023-05-18T03:41:02.191Z,8.8
2023-05-18T03:42:02.261Z,8.8
2023-05-18T03:43:02.139Z,8.8
2023-05-18T03:44:02.205Z,8.8
2023-05-18T03:45:02.111Z,8.9
2023-05-18T03:46:02.250Z,8.7
2023-05-18T03:47:02.084Z,8.8
2023-05-18T03:48:02.135Z,8.9
2023-05-18T03:49:01.979Z,8.8
2023-05-18T03:50:01.939Z,8.8
2023-05-18T03:51:01.994Z,8.8
2023-05-18T03:52:01.879Z,8.8
2023-05-18T03:53:01.798Z,8.8
2023-05-18T03:54:01.859Z,8.8
2023-05-18T03:55:01.726Z,8.8
2023-05-18T03:56:01.733Z,8.9
2023-05-18T03:57:01.616Z,8.9
2023-05-18T03:58:01.674Z,8.9
2023-05-18T03:59:01.528Z,8.9
2023-05-18T04:00:01.981Z,8.8
2023-05-18T04:01:01.829Z,8.8
2023-05-18T04:02:01.954Z,8.8
2023-05-18T04:03:02.018Z,8.8
2023-05-18T04:04:01.949Z,8.8
2023-05-18T04:05:02.002Z,8.9
2023-05-18T04:06:02.072Z,8.8
2023-05-18T04:07:01.908Z,8.9
2023-05-18T04:08:02.006Z,8.9
2023-05-18T04:09:02.050Z,8.9
2023-05-18T04:10:01.879Z,8.9
2023-05-18T04:11:01.831Z,8.9
2023-05-18T04:12:01.854Z,8.9
2023-05-18T04:13:01.744Z,8.9
2023-05-18T04:14:01.815Z,8.9
2023-05-18T04:15:01.650Z,8.8
2023-05-18T04:16:01.680Z,8.9
2023-05-18T04:17:01.376Z,8.9
2023-05-18T04:18:01.446Z,8.9
2023-05-18T04:19:02.366Z,8.9
2023-05-18T04:20:01.670Z,8.8
2023-05-18T04:21:01.732Z,8.9
2023-05-18T04:22:01.583Z,8.9
2023-05-18T04:23:01.589Z,8.8
2023-05-18T04:24:01.436Z,9
2023-05-18T04:25:01.501Z,9
2023-05-18T04:26:01.361Z,8.8
2023-05-18T04:27:01.396Z,8.9
2023-05-18T04:28:02.311Z,8.9
2023-05-18T04:29:02.214Z,8.9
2023-05-18T04:30:02.192Z,8.9
2023-05-18T04:31:02.121Z,9
2023-05-18T04:32:02.002Z,8.9
2023-05-18T04:33:02.009Z,8.9
2023-05-18T04:34:01.930Z,8.9
2023-05-18T04:35:01.874Z,8.9
2023-05-18T04:36:01.907Z,8.9
2023-05-18T04:37:01.743Z,8.9
2023-05-18T04:38:01.749Z,8.9
2023-05-18T04:39:01.641Z,8.9
2023-05-18T04:40:01.718Z,8.8
2023-05-18T04:41:01.558Z,8.9
2023-05-18T04:42:01.577Z,8.9
2023-05-18T04:43:01.482Z,8.9
2023-05-18T04:44:01.482Z,9
2023-05-18T04:45:01.365Z,9
2023-05-18T04:46:01.403Z,9
2023-05-18T04:47:02.067Z,9
2023-05-18T04:48:02.180Z,9
2023-05-18T04:49:02.090Z,9
2023-05-18T04:50:01.950Z,9.1
2023-05-18T04:51:01.887Z,9
2023-05-18T04:52:01.962Z,8.9
2023-05-18T04:53:01.783Z,9
2023-05-18T04:54:01.840Z,9.1
2023-05-18T04:55:01.645Z,9
2023-05-18T04:56:01.756Z,9.1
2023-05-18T04:57:01.569Z,9
2023-05-18T04:58:01.598Z,9
2023-05-18T04:59:01.488Z,9
2023-05-18T05:00:02.874Z,9
2023-05-18T05:01:01.741Z,9.1
2023-05-18T05:02:02.035Z,9.2
2023-05-18T05:03:02.139Z,9.2
2023-05-18T05:04:02.085Z,9.2
2023-05-18T05:05:02.030Z,9.3
2023-05-18T05:06:02.037Z,9.1
2023-05-18T05:07:01.909Z,9.1
2023-05-18T05:08:01.945Z,9.2
2023-05-18T05:09:01.828Z,9.2
2023-05-18T05:10:01.763Z,9.2
2023-05-18T05:11:01.785Z,9.2
2023-05-18T05:12:01.638Z,9.2
2023-05-18T05:13:01.691Z,9.2
2023-05-18T05:14:01.646Z,9.2
2023-05-18T05:15:01.492Z,9.2
2023-05-18T05:16:01.419Z,9.2
2023-05-18T05:17:01.432Z,9.2
2023-05-18T05:18:01.473Z,9.3
2023-05-18T05:19:01.330Z,9.3
2023-05-18T05:20:02.342Z,9.3
2023-05-18T05:21:02.213Z,9.3
2023-05-18T05:22:02.290Z,9.3
2023-05-18T05:23:02.208Z,9.4
2023-05-18T05:24:02.202Z,9.3
2023-05-18T05:25:02.891Z,9.3
2023-05-18T05:26:01.774Z,9.2
2023-05-18T05:27:01.817Z,9.3
2023-05-18T05:28:01.651Z,9.3
2023-05-18T05:29:01.711Z,9.3
2023-05-18T05:30:01.530Z,9.3
2023-05-18T05:31:01.548Z,9.3
2023-05-18T05:32:01.481Z,9.3
2023-05-18T05:33:01.486Z,9.4
2023-05-18T05:34:01.351Z,9.4
2023-05-18T05:35:01.338Z,9.3
2023-05-18T05:36:02.258Z,9.3
2023-05-18T05:37:02.120Z,9.4
2023-05-18T05:38:02.148Z,9.3
2023-05-18T05:39:02.059Z,9.3
2023-05-18T05:40:02.126Z,9.3
2023-05-18T05:41:01.960Z,9.4
2023-05-18T05:42:02.023Z,9.2
2023-05-18T05:43:01.873Z,9.4
2023-05-18T05:44:01.807Z,9.2
2023-05-18T05:45:01.850Z,9.3
2023-05-18T05:46:01.678Z,9.4
2023-05-18T05:47:01.760Z,9.5
2023-05-18T05:48:01.740Z,9.5
2023-05-18T05:49:01.620Z,9.4
2023-05-18T05:50:01.689Z,9.5
2023-05-18T05:51:01.524Z,9.5
2023-05-18T05:52:01.548Z,9.4
2023-05-18T05:53:01.504Z,9.4
2023-05-18T05:54:01.451Z,9.5
2023-05-18T05:55:01.372Z,9.6
2023-05-18T05:56:01.479Z,9.6
2023-05-18T05:57:01.353Z,9.5
2023-05-18T05:58:01.380Z,9.6
2023-05-18T05:59:02.350Z,9.5
2023-05-18T06:00:02.943Z,9.5
2023-05-18T06:01:01.899Z,9.5
2023-05-18T06:02:01.935Z,9.6
2023-05-18T06:03:01.966Z,9.6
2023-05-18T06:04:01.814Z,9.5
2023-05-18T06:05:01.868Z,9.3
2023-05-18T06:06:01.770Z,9.6
2023-05-18T06:07:01.674Z,9.5
2023-05-18T06:08:01.740Z,9.6
2023-05-18T06:09:01.590Z,9.6
2023-05-18T06:10:01.578Z,9.6
2023-05-18T06:11:01.418Z,9.6
2023-05-18T06:12:01.449Z,9.7
2023-05-18T06:13:01.290Z,9.7
2023-05-18T06:14:02.301Z,9.6
2023-05-18T06:15:02.262Z,9.7
2023-05-18T06:16:02.380Z,9.9
2023-05-18T06:17:02.265Z,9.8
2023-05-18T06:18:02.332Z,9.7
2023-05-18T06:19:02.201Z,9.6
2023-05-18T06:20:02.243Z,9.8
2023-05-18T06:21:02.154Z,9.8
2023-05-18T06:22:02.153Z,9.8
2023-05-18T06:23:02.074Z,9.9
2023-05-18T06:24:02.097Z,9.9
2023-05-18T06:25:01.978Z,9.9
2023-05-18T06:26:01.953Z,9.9
2023-05-18T06:27:02.021Z,9.9
2023-05-18T06:28:01.928Z,9.7
2023-05-18T06:29:01.873Z,9.8
2023-05-18T06:30:01.912Z,9.8
2023-05-18T06:31:01.758Z,9.7
2023-05-18T06:32:01.654Z,9.9
2023-05-18T06:33:01.672Z,9.8
2023-05-18T06:34:01.708Z,10
2023-05-18T06:35:01.748Z,9.9
2023-05-18T06:36:01.589Z,9.9
2023-05-18T06:37:01.604Z,9.8
2023-05-18T06:38:01.500Z,10
2023-05-18T06:39:01.547Z,10
2023-05-18T06:40:01.445Z,10
2023-05-18T06:41:01.485Z,10
2023-05-18T06:42:01.346Z,10.1
2023-05-18T06:43:01.378Z,10.1
2023-05-18T06:44:02.382Z,10.1
2023-05-18T06:45:02.250Z,10.1
2023-05-18T06:46:02.302Z,10.1
2023-05-18T06:47:01.364Z,10.2
2023-05-18T06:48:01.428Z,10.1
2023-05-18T06:49:02.376Z,10.1
2023-05-18T06:50:02.278Z,10.1
2023-05-18T06:51:02.272Z,10.2
2023-05-18T06:52:02.189Z,10.1
2023-05-18T06:53:02.230Z,10.1
2023-05-18T06:54:02.109Z,10.1
2023-05-18T06:55:02.207Z,10
2023-05-18T06:56:02.155Z,10.2
2023-05-18T06:57:02.122Z,10.2
2023-05-18T06:58:02.058Z,9.9
2023-05-18T06:59:02.219Z,10.1
2023-05-18T07:00:02.028Z,10.1
2023-05-18T07:01:02.050Z,10.1
2023-05-18T07:02:02.133Z,10.1
2023-05-18T07:03:02.187Z,10.2
2023-05-18T07:04:02.241Z,10.2
2023-05-18T07:05:02.156Z,10
2023-05-18T07:06:02.277Z,10.2
2023-05-18T07:07:02.229Z,10.1
2023-05-18T07:08:02.298Z,10.3
2023-05-18T07:09:02.212Z,10.3
2023-05-18T07:10:02.336Z,10.3
2023-05-18T07:11:02.198Z,10.3
2023-05-18T07:12:02.268Z,10.3
2023-05-18T07:13:02.197Z,10.4
2023-05-18T07:14:02.208Z,10.5
2023-05-18T07:15:02.092Z,10.4
2023-05-18T07:16:02.113Z,10.5
2023-05-18T07:17:01.944Z,10.6
2023-05-18T07:18:01.961Z,10.6
2023-05-18T07:19:01.974Z,10.5
2023-05-18T07:20:01.795Z,10.4
2023-05-18T07:21:01.741Z,10.4
2023-05-18T07:22:01.796Z,10.6
2023-05-18T07:23:01.645Z,10.6
2023-05-18T07:24:02.119Z,10.6
2023-05-18T07:25:02.006Z,10.6
2023-05-18T07:26:01.970Z,10.6
2023-05-18T07:27:01.964Z,10.6
2023-05-18T07:28:01.876Z,10.6
2023-05-18T07:29:01.840Z,10.7
2023-05-18T07:30:01.927Z,10.5
2023-05-18T07:31:01.731Z,10.7
2023-05-18T07:32:01.719Z,10.6
2023-05-18T07:33:01.873Z,10.8
2023-05-18T07:34:01.899Z,10.8
2023-05-18T07:35:01.808Z,10.8
2023-05-18T07:36:01.881Z,10.6
2023-05-18T07:37:01.725Z,10.6
2023-05-18T07:38:01.803Z,10.7
2023-05-18T07:39:01.663Z,10.7
2023-05-18T07:40:01.745Z,10.9
2023-05-18T07:41:01.635Z,10.9
2023-05-18T07:42:01.638Z,10.7
2023-05-18T07:43:01.504Z,10.5
2023-05-18T07:44:01.529Z,10.5
2023-05-18T07:45:01.387Z,10.5
2023-05-18T07:46:01.427Z,10.6
2023-05-18T07:47:02.147Z,10.7
2023-05-18T07:48:02.249Z,10.7
2023-05-18T07:49:02.288Z,10.8
2023-05-18T07:50:02.182Z,11
2023-05-18T07:51:02.206Z,10.8
2023-05-18T07:52:02.145Z,10.9
2023-05-18T07:53:02.133Z,10.9
2023-05-18T07:54:02.045Z,10.7
2023-05-18T07:55:02.079Z,10.7
2023-05-18T07:56:01.923Z,10.6
2023-05-18T07:57:01.870Z,10.5
2023-05-18T07:58:01.912Z,10.4
2023-05-18T07:59:01.758Z,10.6
2023-05-18T08:00:01.967Z,10.6
2023-05-18T08:01:01.824Z,10.7
2023-05-18T08:02:01.487Z,10.6
2023-05-18T08:03:01.723Z,10.6
2023-05-18T08:04:02.099Z,10.7
2023-05-18T08:05:02.118Z,10.6
2023-05-18T08:06:02.200Z,10.6
2023-05-18T08:07:02.091Z,10.7
2023-05-18T08:08:03.372Z,10.8
2023-05-18T08:09:01.516Z,10.9
2023-05-18T08:10:01.527Z,10.9
2023-05-18T08:11:01.305Z,10.8
2023-05-18T08:12:02.358Z,11
2023-05-18T08:13:02.212Z,10.9
2023-05-18T08:14:02.270Z,10.9
2023-05-18T08:15:02.148Z,10.9
2023-05-18T08:16:10.914Z,11
2023-05-18T08:17:02.244Z,11.1
2023-05-18T08:18:02.369Z,11
2023-05-18T08:19:02.205Z,10.8
2023-05-18T08:20:02.243Z,11.1
2023-05-18T08:21:02.126Z,10.9
2023-05-18T08:22:02.190Z,11.1
2023-05-18T08:23:02.063Z,10.9
2023-05-18T08:24:02.070Z,11.1
2023-05-18T08:25:01.889Z,11.2
2023-05-18T08:26:01.882Z,11.1
2023-05-18T08:27:01.902Z,11
2023-05-18T08:28:01.752Z,10.9
2023-05-18T08:29:01.805Z,11.1
2023-05-18T08:30:01.625Z,11
2023-05-18T08:31:01.705Z,11
2023-05-18T08:32:01.319Z,11.1
2023-05-18T08:33:02.425Z,11.1
2023-05-18T08:34:02.276Z,11.1
2023-05-18T08:35:02.306Z,11
2023-05-18T08:36:02.178Z,11.1
2023-05-18T08:37:02.267Z,11.3
2023-05-18T08:38:03.544Z,11.1
2023-05-18T08:39:01.357Z,11.5
2023-05-18T08:40:01.362Z,11.2
2023-05-18T08:41:02.363Z,11.2
2023-05-18T08:42:02.215Z,11.3
2023-05-18T08:43:02.282Z,11.3
2023-05-18T08:44:02.121Z,11.1
2023-05-18T08:45:02.216Z,11.2
2023-05-18T08:46:02.050Z,11.1
2023-05-18T08:47:01.705Z,11.5
2023-05-18T08:48:01.743Z,11.4
2023-05-18T08:49:01.863Z,11.3
2023-05-18T08:50:02.028Z,11.1
2023-05-18T08:51:02.066Z,11.4
2023-05-18T08:52:01.919Z,11.4
2023-05-18T08:53:01.862Z,11.5
2023-05-18T08:54:01.928Z,11.5
2023-05-18T08:55:01.789Z,11.4
2023-05-18T08:56:01.837Z,11.4
2023-05-18T08:57:01.670Z,11.4
2023-05-18T08:58:01.726Z,11.3
2023-05-18T08:59:01.579Z,11.2
2023-05-18T09:00:02.402Z,11.4
2023-05-18T09:01:01.356Z,11.5
2023-05-18T09:02:01.445Z,11.3
2023-05-18T09:03:01.558Z,11.1
2023-05-18T09:04:01.343Z,11.2
2023-05-18T09:05:01.372Z,11.3
2023-05-18T09:06:02.336Z,11.6
2023-05-18T09:07:02.228Z,11.6
2023-05-18T09:08:02.253Z,11.5
2023-05-18T09:09:02.131Z,11.7
2023-05-18T09:10:02.198Z,11.6
2023-05-18T09:11:02.058Z,11.8
2023-05-18T09:12:02.113Z,11.5
2023-05-18T09:13:01.892Z,11.6
2023-05-18T09:14:01.843Z,11.6
2023-05-18T09:15:01.886Z,11.9
2023-05-18T09:16:01.744Z,11.9
2023-05-18T09:17:01.627Z,11.9
2023-05-18T09:18:01.703Z,11.9
2023-05-18T09:19:01.676Z,11.8
2023-05-18T09:20:01.709Z,11.9
2023-05-18T09:21:01.544Z,11.8
2023-05-18T09:22:01.596Z,11.7
2023-05-18T09:23:01.448Z,11.7
2023-05-18T09:24:01.530Z,11.6
2023-05-18T09:25:01.292Z,11.6
2023-05-18T09:26:02.365Z,11.6
2023-05-18T09:27:02.229Z,11.6
2023-05-18T09:28:02.276Z,11.7
2023-05-18T09:29:02.162Z,11.7
2023-05-18T09:30:02.159Z,11.7
2023-05-18T09:31:02.036Z,11.8
2023-05-18T09:32:02.056Z,12.1
2023-05-18T09:33:01.991Z,12.2
2023-05-18T09:34:01.825Z,12.3
2023-05-18T09:35:01.793Z,12
2023-05-18T09:36:01.766Z,11.8
2023-05-18T09:37:01.626Z,11.7
2023-05-18T09:38:01.661Z,12
2023-05-18T09:39:01.517Z,12.1
2023-05-18T09:40:01.531Z,11.9
2023-05-18T09:41:01.400Z,11.8
2023-05-18T09:42:01.408Z,11.8
2023-05-18T09:43:02.341Z,11.9
2023-05-18T09:44:02.225Z,11.9
2023-05-18T09:45:02.311Z,11.9
2023-05-18T09:46:02.218Z,12.1
2023-05-18T09:47:01.313Z,12.1
2023-05-18T09:48:02.322Z,12.1
2023-05-18T09:49:02.200Z,12.2
2023-05-18T09:50:02.275Z,12.3
2023-05-18T09:51:02.136Z,12.2
2023-05-18T09:52:02.173Z,12.1
2023-05-18T09:53:02.027Z,12.1
2023-05-18T09:54:02.083Z,12.1
2023-05-18T09:55:01.951Z,12.1
2023-05-18T09:56:01.890Z,12.2
2023-05-18T09:57:10.603Z,12.2
2023-05-18T09:58:02.217Z,12.2
2023-05-18T09:59:02.111Z,12.1
2023-05-18T10:00:02.263Z,11.9
2023-05-18T10:01:02.089Z,12.1
2023-05-18T10:02:02.323Z,12.3
2023-05-18T10:03:02.383Z,12.2
2023-05-18T10:04:02.230Z,12.2
2023-05-18T10:05:02.237Z,12.3
2023-05-18T10:06:02.160Z,12.4
2023-05-18T10:07:02.224Z,12.3
2023-05-18T10:08:02.099Z,12.2
2023-05-18T10:09:02.149Z,12.2
2023-05-18T10:10:01.995Z,12.1
2023-05-18T10:11:02.074Z,12.3
2023-05-18T10:12:01.896Z,12.1
2023-05-18T10:13:01.832Z,12
2023-05-18T10:14:01.860Z,12.1
2023-05-18T10:15:01.763Z,11.8
2023-05-18T10:16:01.788Z,12
2023-05-18T10:17:14.840Z,11.9
2023-05-18T10:18:02.250Z,12.1
2023-05-18T10:19:02.307Z,12.1
2023-05-18T10:20:02.178Z,12.2
2023-05-18T10:21:02.202Z,12.2
2023-05-18T10:22:02.066Z,12
2023-05-18T10:23:02.152Z,12
2023-05-18T10:24:01.998Z,11.9
2023-05-18T10:25:02.069Z,11.8
2023-05-18T10:26:01.935Z,11.8
2023-05-18T10:27:01.851Z,11.9
2023-05-18T10:28:01.919Z,12.2
2023-05-18T10:29:01.753Z,11.9
2023-05-18T10:30:01.748Z,12.1
2023-05-18T10:31:01.615Z,12.3
2023-05-18T10:32:03.362Z,12.2
2023-05-18T10:33:01.630Z,12.2
2023-05-18T10:34:01.596Z,12.3
2023-05-18T10:35:01.445Z,12.4
2023-05-18T10:36:01.485Z,12.3
2023-05-18T10:37:01.369Z,12.2
2023-05-18T10:38:01.394Z,11.9
2023-05-18T10:39:02.361Z,12.1
2023-05-18T10:40:02.215Z,12
2023-05-18T10:41:02.249Z,12.1
2023-05-18T10:42:02.144Z,12.1
2023-05-18T10:43:02.154Z,12.1
2023-05-18T10:44:02.058Z,12.1
2023-05-18T10:45:02.120Z,12.4
2023-05-18T10:46:02.062Z,12.5
2023-05-18T10:47:02.360Z,12.4
2023-05-18T10:48:01.447Z,12.2
2023-05-18T10:49:02.368Z,12.2
2023-05-18T10:50:02.253Z,12.3
2023-05-18T10:51:02.373Z,12.3
2023-05-18T10:52:02.272Z,12.4
2023-05-18T10:53:02.312Z,12.1
2023-05-18T10:54:02.144Z,12.2
2023-05-18T10:55:02.223Z,12.3
2023-05-18T10:56:02.068Z,12.2
2023-05-18T10:57:02.107Z,12.2
2023-05-18T10:58:01.989Z,12.2
2023-05-18T10:59:01.968Z,12.2
2023-05-18T11:00:01.974Z,12.2
2023-05-18T11:01:01.911Z,12.2
2023-05-18T11:02:01.951Z,12.1
2023-05-18T11:03:01.939Z,12.1
2023-05-18T11:04:01.762Z,12.2
2023-05-18T11:05:01.799Z,12.2
2023-05-18T11:06:01.612Z,12.1
2023-05-18T11:07:01.653Z,11.9
2023-05-18T11:08:01.518Z,12.2
2023-05-18T11:09:01.525Z,12
2023-05-18T11:10:01.367Z,12
2023-05-18T11:11:01.414Z,12.2
2023-05-18T11:12:02.343Z,12.3
2023-05-18T11:13:01.317Z,12.2
2023-05-18T11:14:01.403Z,12
2023-05-18T11:15:02.309Z,12.1
2023-05-18T11:16:02.260Z,12.2
2023-05-18T11:17:01.449Z,12.1
2023-05-18T11:18:01.588Z,12.1
2023-05-18T11:19:01.520Z,12.1
2023-05-18T11:20:01.507Z,12
2023-05-18T11:21:01.354Z,12
2023-05-18T11:22:01.393Z,12.1
2023-05-18T11:23:02.362Z,12.2
2023-05-18T11:24:02.227Z,12.2
2023-05-18T11:25:02.243Z,12.2
2023-05-18T11:26:02.138Z,12.3
2023-05-18T11:27:02.237Z,12.3
2023-05-18T11:28:02.102Z,12.2
2023-05-18T11:29:02.100Z,12.3
2023-05-18T11:30:14.515Z,12.2
2023-05-18T11:31:01.417Z,12.1
2023-05-18T11:32:02.522Z,12
2023-05-18T11:33:01.854Z,12
2023-05-18T11:34:02.062Z,12
2023-05-18T11:35:02.135Z,11.9
2023-05-18T11:36:01.955Z,12.1
2023-05-18T11:37:02.025Z,12.1
2023-05-18T11:38:02.028Z,12.1
2023-05-18T11:39:01.930Z,12.1
2023-05-18T11:40:04.507Z,12.1
2023-05-18T11:41:01.967Z,12.1
2023-05-18T11:42:01.963Z,12.2
2023-05-18T11:43:01.831Z,12.1
2023-05-18T11:44:01.790Z,12.3
2023-05-18T11:45:01.810Z,12
2023-05-18T11:46:01.680Z,12
2023-05-18T11:47:01.859Z,11.9
2023-05-18T11:48:02.022Z,11.9
2023-05-18T11:49:02.188Z,12.1
2023-05-18T11:50:02.045Z,12.2
2023-05-18T11:51:02.081Z,12.2
2023-05-18T11:52:01.882Z,12.2
2023-05-18T11:53:01.855Z,12
2023-05-18T11:54:01.889Z,12.2
2023-05-18T11:55:01.756Z,12.1
2023-05-18T11:56:01.773Z,12.1
2023-05-18T11:57:01.631Z,12.1
2023-05-18T11:58:01.694Z,12.1
2023-05-18T11:59:01.517Z,12
2023-05-18T12:00:01.910Z,12
2023-05-18T12:01:01.741Z,11.9
2023-05-18T12:02:02.273Z,11.9
2023-05-18T12:03:02.526Z,12.1
2023-05-18T12:04:01.726Z,12
2023-05-18T12:05:01.737Z,12
2023-05-18T12:06:01.616Z,11.8
2023-05-18T12:07:01.632Z,11.8
2023-05-18T12:08:01.474Z,11.9
2023-05-18T12:09:01.539Z,11.9
2023-05-18T12:10:02.301Z,11.8
2023-05-18T12:11:02.247Z,11.9
2023-05-18T12:12:02.222Z,11.9
2023-05-18T12:13:02.129Z,12.2
2023-05-18T12:14:02.200Z,12.2
2023-05-18T12:15:02.063Z,12.2
2023-05-18T12:16:02.138Z,12.1
2023-05-18T12:17:01.951Z,12
2023-05-18T12:18:01.945Z,12
2023-05-18T12:19:02.129Z,12
2023-05-18T12:20:01.931Z,12
2023-05-18T12:21:01.871Z,12.1
2023-05-18T12:22:01.860Z,12.1
2023-05-18T12:23:01.722Z,12
2023-05-18T12:24:01.784Z,12.1
2023-05-18T12:25:01.636Z,12
2023-05-18T12:26:01.685Z,12.1
2023-05-18T12:27:01.547Z,12.1
2023-05-18T12:28:01.592Z,12.2
2023-05-18T12:29:01.439Z,12
2023-05-18T12:30:01.451Z,12
2023-05-18T12:31:01.281Z,12.1
2023-05-18T12:32:02.204Z,12
2023-05-18T12:33:02.266Z,12.1
2023-05-18T12:34:02.119Z,12.2
2023-05-18T12:35:02.183Z,12.1
2023-05-18T12:36:02.059Z,12.1
2023-05-18T12:37:02.079Z,12.1
2023-05-18T12:38:02.588Z,12
2023-05-18T12:39:01.893Z,11.9
2023-05-18T12:40:01.928Z,11.8
2023-05-18T12:41:01.801Z,11.9
2023-05-18T12:42:01.760Z,12.1
2023-05-18T12:43:01.806Z,11.8
2023-05-18T12:44:01.676Z,11.7
2023-05-18T12:45:01.688Z,11.6
2023-05-18T12:46:01.850Z,11.8
2023-05-18T12:47:01.461Z,11.9
2023-05-18T12:48:01.594Z,11.8
2023-05-18T12:49:01.504Z,11.7
2023-05-18T12:50:01.492Z,11.7
2023-05-18T12:51:01.321Z,11.8
2023-05-18T12:52:02.323Z,12
2023-05-18T12:53:02.232Z,11.8
2023-05-18T12:54:02.312Z,11.7
2023-05-18T12:55:02.265Z,11.6
2023-05-18T12:56:02.290Z,11.9
2023-05-18T12:57:02.501Z,11.8
2023-05-18T12:58:02.301Z,11.5
2023-05-18T12:59:02.186Z,11.5
2023-05-18T13:00:02.250Z,11.7
2023-05-18T13:01:02.175Z,11.6
2023-05-18T13:02:01.913Z,11.8
2023-05-18T13:03:02.020Z,11.6
2023-05-18T13:04:01.968Z,11.6
2023-05-18T13:05:02.094Z,11.9
2023-05-18T13:06:02.090Z,12
2023-05-18T13:07:02.045Z,12
2023-05-18T13:08:01.921Z,11.6
2023-05-18T13:09:01.965Z,11.6
2023-05-18T13:10:01.802Z,11.6
2023-05-18T13:11:12.495Z,11.5
2023-05-18T13:12:07.199Z,11.7
2023-05-18T13:13:01.821Z,11.6
2023-05-18T13:14:01.705Z,11.6
2023-05-18T13:15:01.729Z,11.7
2023-05-18T13:16:01.629Z,11.5
2023-05-18T13:17:01.417Z,11.4
2023-05-18T13:18:01.833Z,11.6
2023-05-18T13:19:01.684Z,11.8
2023-05-18T13:20:01.739Z,12
2023-05-18T13:21:01.532Z,12
2023-05-18T13:22:01.543Z,11.8
2023-05-18T13:23:01.428Z,12
2023-05-18T13:24:01.510Z,11.8
2023-05-18T13:25:01.399Z,11.6
2023-05-18T13:26:01.457Z,11.6
2023-05-18T13:27:01.348Z,11.8
2023-05-18T13:28:01.362Z,11.8
2023-05-18T13:29:01.312Z,11.8
2023-05-18T13:30:02.452Z,11.7
2023-05-18T13:31:02.247Z,11.7
2023-05-18T13:32:01.389Z,11.7
2023-05-18T13:33:01.550Z,11.8
2023-05-18T13:34:01.317Z,11.7
2023-05-18T13:35:01.339Z,11.6
2023-05-18T13:36:02.243Z,11.8
2023-05-18T13:37:02.152Z,11.7
2023-05-18T13:38:02.227Z,11.6
2023-05-18T13:39:02.081Z,11.8